Time;durP1;ratioP1;P1;durP2;ratioP2;P2;SDS_P1;SDS_P2;PMS_P1;PMS_P2;Temp;Humidity;BMP_temperature;BMP_pressure;BME280_temperature;BME280_humidity;BME280_pressure;Samples;Min_cycle;Max_cycle;Signal;HPM_P1;HPM_P2
2023/10/07 00:00:25;;;;;;;4.57;3.77;;;9.60;99.90;;;;;;5067420;28;20739;-72
2023/10/07 00:02:52;;;;;;;4.97;4.20;;;9.60;99.90;;;;;;5067234;28;20652;-72
2023/10/07 00:05:27;;;;;;;7.37;3.97;;;9.70;99.90;;;;;;5066853;28;20768;-72
2023/10/07 00:08:00;;;;;;;6.20;3.70;;;9.70;99.90;;;;;;5067459;28;21015;-72
2023/10/07 00:10:29;;;;;;;3.80;2.93;;;9.60;99.90;;;;;;5067362;28;20629;-72
2023/10/07 00:12:58;;;;;;;4.73;4.10;;;9.60;99.90;;;;;;5066696;28;21290;-72
2023/10/07 00:15:28;;;;;;;4.17;2.97;;;9.60;99.90;;;;;;5066353;28;20653;-72
2023/10/07 00:17:57;;;;;;;4.00;3.30;;;9.60;99.90;;;;;;5067735;28;20641;-72
2023/10/07 00:20:27;;;;;;;4.23;3.37;;;9.50;99.90;;;;;;5067206;28;20629;-72
2023/10/07 00:23:00;;;;;;;7.37;3.80;;;9.40;99.90;;;;;;5068090;28;20710;-72
2023/10/07 00:25:30;;;;;;;5.20;3.27;;;9.40;99.90;;;;;;5067228;28;20638;-72
2023/10/07 00:27:57;;;;;;;11.23;3.33;;;9.50;99.90;;;;;;5067714;28;20740;-72
2023/10/07 00:30:27;;;;;;;4.77;3.03;;;9.40;99.90;;;;;;5067255;28;20633;-72
2023/10/07 00:32:55;;;;;;;5.57;3.30;;;9.40;99.90;;;;;;5067075;28;20732;-72
2023/10/07 00:35:23;;;;;;;4.27;3.10;;;9.40;99.90;;;;;;5067223;28;20626;-72
2023/10/07 00:37:52;;;;;;;3.60;3.20;;;9.40;99.90;;;;;;5066665;28;20633;-72
2023/10/07 00:40:31;;;;;;;4.77;2.63;;;9.30;99.90;;;;;;5066521;28;21280;-72
2023/10/07 00:42:58;;;;;;;4.50;3.30;;;9.30;99.90;;;;;;5067152;28;20771;-72
2023/10/07 00:45:26;;;;;;;5.83;3.37;;;9.30;99.90;;;;;;5066664;28;20638;-72
2023/10/07 00:47:53;;;;;;;10.20;3.97;;;9.30;99.90;;;;;;5067042;28;20646;-72
2023/10/07 00:50:22;;;;;;;4.33;3.30;;;9.30;99.90;;;;;;5066292;28;20637;-72
2023/10/07 00:52:58;;;;;;;3.70;2.50;;;9.30;99.90;;;;;;5067609;28;20625;-72
2023/10/07 00:55:29;;;;;;;6.07;2.87;;;9.30;99.90;;;;;;5070491;28;21181;-72
2023/10/07 00:58:13;;;;;;;2.93;2.57;;;9.30;99.90;;;;;;5071267;28;20635;-72
2023/10/07 01:00:49;;;;;;;5.50;3.00;;;9.30;99.90;;;;;;5069643;28;20639;-72
2023/10/07 01:03:23;;;;;;;4.77;3.10;;;9.20;99.90;;;;;;5070837;28;20806;-72
2023/10/07 01:06:10;;;;;;;4.63;3.10;;;9.10;99.90;;;;;;5070109;28;20735;-72
2023/10/07 01:08:44;;;;;;;7.07;3.47;;;9.30;99.90;;;;;;5070614;28;20698;-72
2023/10/07 01:11:21;;;;;;;3.03;2.20;;;9.20;99.90;;;;;;5069864;28;20728;-72
2023/10/07 01:13:50;;;;;;;3.47;3.10;;;9.30;99.90;;;;;;5070604;28;20728;-72
2023/10/07 01:16:31;;;;;;;3.40;2.70;;;9.20;99.90;;;;;;5070556;28;20629;-72
2023/10/07 01:19:09;;;;;;;7.00;3.47;;;9.10;99.90;;;;;;5071112;28;20629;-72
2023/10/07 01:21:50;;;;;;;4.20;2.73;;;9.10;99.90;;;;;;5070071;28;20760;-72
2023/10/07 01:24:34;;;;;;;3.30;2.77;;;9.10;99.90;;;;;;5070250;28;20668;-72
2023/10/07 01:27:10;;;;;;;4.57;3.30;;;9.00;99.90;;;;;;5070195;28;20621;-72
2023/10/07 01:29:42;;;;;;;3.63;3.00;;;9.00;99.90;;;;;;5070224;28;21212;-72
2023/10/07 01:32:16;;;;;;;6.27;3.97;;;9.00;99.90;;;;;;5070577;28;21018;-72
2023/10/07 01:34:48;;;;;;;4.80;3.50;;;9.00;99.90;;;;;;5070237;28;21088;-72
2023/10/07 01:37:21;;;;;;;3.90;2.97;;;8.90;99.90;;;;;;5069640;28;20625;-71
2023/10/07 01:39:52;;;;;;;3.53;3.23;;;8.90;99.90;;;;;;5070331;28;20630;-72
2023/10/07 01:42:34;;;;;;;3.90;2.67;;;8.90;99.90;;;;;;5069814;28;20630;-72
2023/10/07 01:45:10;;;;;;;3.73;3.00;;;8.90;99.90;;;;;;5069827;28;21557;-72
2023/10/07 01:47:39;;;;;;;4.10;2.90;;;8.80;99.90;;;;;;5069649;28;20657;-72
2023/10/07 01:50:11;;;;;;;5.87;4.20;;;8.80;99.90;;;;;;5069999;28;20725;-72
2023/10/07 01:52:39;;;;;;;4.63;3.43;;;8.80;99.90;;;;;;5069204;28;21572;-72
2023/10/07 01:55:11;;;;;;;2.93;2.43;;;8.80;99.90;;;;;;5069531;28;21022;-71
2023/10/07 01:57:40;;;;;;;4.03;3.63;;;8.80;99.90;;;;;;5068369;28;21201;-71
2023/10/07 02:00:11;;;;;;;3.77;2.60;;;8.80;99.90;;;;;;5069128;28;21166;-71
2023/10/07 02:02:48;;;;;;;4.97;3.20;;;8.90;99.90;;;;;;5070009;28;20659;-72
2023/10/07 02:05:16;;;;;;;3.63;2.23;;;9.00;99.90;;;;;;5068267;28;20657;-71
2023/10/07 02:07:46;;;;;;;2.60;1.93;;;9.10;99.90;;;;;;5069798;28;21956;-71
2023/10/07 02:10:23;;;;;;;4.30;2.90;;;9.10;99.90;;;;;;5069855;28;20765;-71
2023/10/07 02:12:53;;;;;;;6.27;2.50;;;9.10;99.90;;;;;;5068396;28;20629;-71
2023/10/07 02:15:21;;;;;;;4.53;2.73;;;9.10;99.90;;;;;;5069421;28;20637;-71
2023/10/07 02:17:48;;;;;;;3.87;3.50;;;9.10;99.90;;;;;;5068571;28;20724;-71
2023/10/07 02:20:38;;;;;;;5.50;2.83;;;9.00;99.90;;;;;;5069372;28;20629;-72
2023/10/07 02:23:12;;;;;;;3.47;3.03;;;8.90;99.90;;;;;;5069755;28;20976;-72
2023/10/07 02:25:42;;;;;;;4.27;2.80;;;8.90;99.90;;;;;;5069159;28;20915;-72
2023/10/07 02:28:10;;;;;;;3.83;2.57;;;8.80;99.90;;;;;;5069129;28;20629;-71
2023/10/07 02:30:51;;;;;;;8.13;3.40;;;8.70;99.90;;;;;;5069232;28;20799;-71
2023/10/07 02:33:21;;;;;;;7.40;3.50;;;8.70;99.90;;;;;;5069190;28;20633;-70
2023/10/07 02:35:55;;;;;;;3.97;3.10;;;8.70;99.90;;;;;;5068478;28;20625;-71
2023/10/07 02:38:28;;;;;;;2.70;2.40;;;8.70;99.90;;;;;;5068658;28;21666;-71
2023/10/07 02:41:06;;;;;;;3.73;2.70;;;8.70;99.90;;;;;;5069158;28;20641;-71
2023/10/07 02:43:35;;;;;;;4.53;2.50;;;8.70;99.90;;;;;;5068288;28;20621;-71
2023/10/07 02:46:08;;;;;;;9.30;3.30;;;8.70;99.90;;;;;;5068294;28;20636;-72
2023/10/07 02:48:40;;;;;;;6.60;2.67;;;8.60;99.90;;;;;;5068867;28;20647;-71
2023/10/07 02:51:11;;;;;;;3.77;2.93;;;8.70;99.90;;;;;;5068169;28;20679;-71
2023/10/07 02:53:37;;;;;;;7.73;3.07;;;8.70;99.90;;;;;;5068742;28;21004;-71
2023/10/07 02:56:16;;;;;;;4.50;3.13;;;8.70;99.90;;;;;;5067942;28;20644;-72
2023/10/07 02:58:59;;;;;;;5.60;2.90;;;8.60;99.90;;;;;;5069404;28;20617;-71
2023/10/07 03:01:26;;;;;;;2.60;2.40;;;8.40;99.90;;;;;;5068021;28;20629;-71
2023/10/07 03:03:53;;;;;;;3.67;3.33;;;8.50;99.90;;;;;;5068279;28;20699;-71
2023/10/07 03:06:25;;;;;;;3.00;2.70;;;8.50;99.90;;;;;;5067723;28;20613;-72
2023/10/07 03:09:00;;;;;;;3.40;2.57;;;8.50;99.90;;;;;;5068798;28;20736;-71
2023/10/07 03:11:40;;;;;;;3.17;2.90;;;8.40;99.90;;;;;;5068537;28;20618;-71
2023/10/07 03:14:12;;;;;;;3.00;2.70;;;8.50;99.90;;;;;;5067482;28;20661;-71
2023/10/07 03:16:45;;;;;;;4.77;3.13;;;8.60;99.90;;;;;;5066140;28;20626;-71
2023/10/07 03:19:21;;;;;;;4.63;3.20;;;8.40;99.90;;;;;;5068484;28;20633;-71
2023/10/07 03:22:09;;;;;;;4.77;2.83;;;8.50;99.90;;;;;;5069114;28;20624;-71
2023/10/07 03:24:42;;;;;;;4.40;3.07;;;8.40;99.90;;;;;;5068414;28;20722;-71
2023/10/07 03:27:21;;;;;;;4.00;3.60;;;8.30;99.90;;;;;;5067403;28;20643;-71
2023/10/07 03:29:59;;;;;;;2.90;2.43;;;8.40;99.90;;;;;;5068503;28;21624;-71
2023/10/07 03:32:32;;;;;;;3.33;2.77;;;8.40;99.90;;;;;;5068486;28;21208;-71
2023/10/07 03:35:01;;;;;;;2.80;2.33;;;8.30;99.90;;;;;;5067755;28;20625;-71
2023/10/07 03:37:28;;;;;;;2.90;2.60;;;8.40;99.90;;;;;;5066697;28;20633;-71
2023/10/07 03:40:04;;;;;;;2.43;2.23;;;8.40;99.90;;;;;;5068460;28;20641;-71
2023/10/07 03:42:33;;;;;;;5.77;3.07;;;8.30;99.90;;;;;;5068108;28;21245;-71
2023/10/07 03:45:00;;;;;;;3.03;2.73;;;8.20;99.90;;;;;;5067445;28;20818;-71
2023/10/07 03:47:32;;;;;;;4.90;3.20;;;8.20;99.90;;;;;;5066921;28;20724;-71
2023/10/07 03:49:59;;;;;;;3.10;2.53;;;8.20;99.90;;;;;;5067774;28;21194;-71
2023/10/07 03:52:28;;;;;;;3.27;2.80;;;8.20;99.90;;;;;;5067681;28;20629;-72
2023/10/07 03:54:59;;;;;;;4.90;2.80;;;8.20;99.90;;;;;;5067487;28;21261;-71
2023/10/07 03:57:26;;;;;;;2.30;2.00;;;8.20;99.90;;;;;;5067868;28;20633;-71
2023/10/07 03:59:55;;;;;;;4.27;2.70;;;8.10;99.90;;;;;;5067894;28;20639;-71
2023/10/07 04:02:36;;;;;;;4.73;3.10;;;8.10;99.90;;;;;;5067953;28;20621;-71
2023/10/07 04:05:10;;;;;;;3.40;2.80;;;8.10;99.90;;;;;;5067312;28;20664;-71
2023/10/07 04:07:37;;;;;;;2.57;2.37;;;8.10;99.90;;;;;;5066688;28;20703;-71
2023/10/07 04:10:15;;;;;;;3.53;2.47;;;8.10;99.90;;;;;;5067087;28;21027;-71
2023/10/07 04:12:46;;;;;;;5.10;2.43;;;8.10;99.90;;;;;;5066666;28;20648;-71
2023/10/07 04:15:17;;;;;;;3.03;1.93;;;8.00;99.90;;;;;;5067477;28;20632;-71
2023/10/07 04:17:44;;;;;;;4.17;2.60;;;8.00;99.90;;;;;;5067031;28;20630;-72
2023/10/07 04:20:20;;;;;;;6.43;3.30;;;8.00;99.90;;;;;;5067403;28;20966;-71
2023/10/07 04:22:57;;;;;;;2.63;2.40;;;8.00;99.90;;;;;;5066279;28;20790;-72
2023/10/07 04:25:24;;;;;;;2.93;2.50;;;8.10;99.90;;;;;;5066518;28;20673;-72
2023/10/07 04:27:53;;;;;;;3.20;2.40;;;8.00;99.90;;;;;;5066651;28;21087;-71
2023/10/07 04:30:26;;;;;;;5.17;3.93;;;8.00;99.90;;;;;;5066565;28;20636;-71
2023/10/07 04:33:00;;;;;;;4.20;2.80;;;8.00;99.90;;;;;;5066823;28;20626;-71
2023/10/07 04:35:30;;;;;;;4.70;3.07;;;8.00;99.90;;;;;;5066276;28;20645;-71
2023/10/07 04:38:09;;;;;;;2.73;2.53;;;8.00;99.90;;;;;;5067474;28;20625;-71
2023/10/07 04:43:35;;;;;;;5.13;3.17;;;7.80;99.90;;;;;;5067246;28;21060;-71
2023/10/07 04:46:12;;;;;;;2.83;2.47;;;7.90;99.90;;;;;;5066697;28;20625;-72
2023/10/07 04:48:54;;;;;;;3.13;2.55;;;7.90;99.90;;;;;;5067292;28;20779;-72
2023/10/07 04:51:25;;;;;;;5.10;2.50;;;8.10;99.90;;;;;;5067355;28;20192;-72
2023/10/07 04:53:57;;;;;;;5.07;3.23;;;8.10;99.90;;;;;;5067271;28;20644;-72
2023/10/07 04:56:27;;;;;;;4.90;2.97;;;8.10;99.90;;;;;;5065688;28;20680;-72
2023/10/07 04:58:54;;;;;;;5.03;3.17;;;7.90;99.90;;;;;;5066430;28;20617;-72
2023/10/07 05:01:31;;;;;;;4.60;2.70;;;8.00;99.90;;;;;;5066343;28;20641;-72
2023/10/07 05:03:58;;;;;;;3.88;2.60;;;7.90;99.90;;;;;;5066961;28;20966;-72
2023/10/07 05:06:25;;;;;;;4.17;3.07;;;7.90;99.90;;;;;;5065361;28;20510;-72
2023/10/07 05:08:51;;;;;;;4.30;2.92;;;7.80;99.90;;;;;;5065706;28;20640;-72
2023/10/07 05:11:18;;;;;;;2.90;2.60;;;7.90;99.90;;;;;;5066136;28;20196;-72
2023/10/07 05:13:46;;;;;;;5.87;3.47;;;7.90;99.90;;;;;;5065399;28;20625;-72
2023/10/07 05:16:13;;;;;;;6.13;3.27;;;7.80;99.90;;;;;;5064546;28;20665;-72
2023/10/07 05:18:41;;;;;;;2.15;1.98;;;7.80;99.90;;;;;;5064709;28;20621;-72
2023/10/07 05:21:08;;;;;;;5.13;3.33;;;7.70;99.90;;;;;;5063839;28;20202;-71
2023/10/07 05:23:36;;;;;;;4.33;3.20;;;7.70;99.90;;;;;;5065351;28;20625;-72
2023/10/07 05:26:08;;;;;;;7.10;2.80;;;7.70;99.90;;;;;;5066045;28;22166;-72
2023/10/07 05:28:35;;;;;;;3.33;3.03;;;7.60;99.90;;;;;;5066609;28;20629;-72
2023/10/07 05:31:03;;;;;;;3.33;2.90;;;7.60;99.90;;;;;;5065796;28;20629;-72
2023/10/07 05:33:32;;;;;;;2.33;2.00;;;7.70;99.90;;;;;;5066309;28;20719;-72
2023/10/07 05:36:08;;;;;;;8.20;4.03;;;7.60;99.90;;;;;;5066053;28;21019;-72
2023/10/07 05:38:36;;;;;;;2.53;2.28;;;7.60;99.90;;;;;;5066188;28;20625;-71
2023/10/07 05:41:02;;;;;;;3.13;2.58;;;7.70;99.90;;;;;;5068272;28;20764;-72
2023/10/07 05:43:31;;;;;;;3.92;2.28;;;7.70;99.90;;;;;;5068797;28;20675;-72
2023/10/07 05:45:58;;;;;;;3.93;3.37;;;7.70;99.90;;;;;;5068980;28;20214;-71
2023/10/07 05:48:25;;;;;;;5.73;4.57;;;7.70;99.90;;;;;;5069663;28;20626;-72
2023/10/07 05:50:54;;;;;;;4.07;3.60;;;7.70;99.90;;;;;;5068868;28;21220;-72
2023/10/07 05:53:22;;;;;;;4.72;3.03;;;7.70;99.90;;;;;;5068942;28;20703;-73
2023/10/07 05:55:49;;;;;;;3.65;3.30;;;7.80;99.90;;;;;;5069486;28;20215;-73
2023/10/07 05:58:16;;;;;;;5.88;3.42;;;7.80;99.90;;;;;;5069216;28;20210;-75
2023/10/07 06:00:42;;;;;;;4.20;3.20;;;7.60;99.90;;;;;;5068962;28;20374;-75
2023/10/07 06:03:12;;;;;;;5.60;2.42;;;7.90;99.90;;;;;;5067832;28;20629;-73
2023/10/07 06:05:39;;;;;;;3.58;2.83;;;7.70;99.90;;;;;;5068666;28;20248;-73
2023/10/07 06:08:07;;;;;;;3.85;3.13;;;7.90;99.90;;;;;;5069379;28;20215;-73
2023/10/07 06:10:36;;;;;;;4.75;3.25;;;7.90;99.90;;;;;;5069591;28;20203;-73
2023/10/07 06:13:08;;;;;;;5.28;3.40;;;8.10;99.90;;;;;;5068478;28;20208;-74
2023/10/07 06:15:35;;;;;;;5.50;3.45;;;7.90;99.90;;;;;;5068540;28;20234;-74
2023/10/07 06:18:04;;;;;;;3.73;3.40;;;8.00;99.90;;;;;;5068581;28;20199;-73
2023/10/07 06:20:37;;;;;;;5.53;3.17;;;8.10;99.90;;;;;;5068000;28;20687;-72
2023/10/07 06:23:13;;;;;;;7.25;3.90;;;8.10;99.90;;;;;;5068032;28;21014;-72
2023/10/07 06:25:48;;;;;;;5.83;3.70;;;8.10;99.90;;;;;;5066755;28;20215;-72
2023/10/07 06:28:25;;;;;;;4.20;3.03;;;8.30;99.90;;;;;;5068094;28;20732;-71
2023/10/07 06:30:56;;;;;;;2.43;2.00;;;8.30;99.90;;;;;;5069500;28;20869;-71
2023/10/07 06:33:23;;;;;;;6.30;2.50;;;8.50;99.90;;;;;;5067985;28;21375;-69
2023/10/07 06:35:51;;;;;;;5.67;3.00;;;8.50;99.90;;;;;;5068184;28;20656;-72
2023/10/07 06:38:21;;;;;;;4.23;3.40;;;8.60;99.90;;;;;;5068124;28;21391;-70
2023/10/07 06:40:53;;;;;;;3.17;2.87;;;8.70;99.90;;;;;;5068428;28;21251;-71
2023/10/07 06:43:21;;;;;;;4.13;2.70;;;8.80;99.90;;;;;;5069261;28;20630;-71
2023/10/07 06:45:48;;;;;;;2.93;2.50;;;9.00;99.90;;;;;;5067799;28;20634;-70
2023/10/07 06:48:23;;;;;;;5.73;3.33;;;9.20;99.90;;;;;;5068367;28;20977;-70
2023/10/07 06:50:52;;;;;;;4.73;3.20;;;9.40;99.90;;;;;;5062672;28;21110;-70
2023/10/07 06:53:22;;;;;;;5.53;3.23;;;9.60;99.90;;;;;;5068108;28;20633;-70
2023/10/07 06:55:51;;;;;;;3.37;2.30;;;9.90;99.90;;;;;;5065383;28;20669;-69
2023/10/07 06:58:22;;;;;;;4.47;2.90;;;9.90;99.90;;;;;;5066700;28;20665;-71
2023/10/07 07:00:55;;;;;;;3.93;3.03;;;10.10;99.90;;;;;;5062758;28;20630;-70
2023/10/07 07:03:25;;;;;;;4.80;2.60;;;10.40;99.90;;;;;;5067854;28;20725;-70
2023/10/07 07:05:54;;;;;;;4.17;3.07;;;10.50;99.90;;;;;;5061689;28;20738;-72
2023/10/07 07:08:23;;;;;;;7.30;2.83;;;10.70;99.90;;;;;;5067988;28;20967;-72
2023/10/07 07:10:55;;;;;;;3.70;2.87;;;10.80;99.90;;;;;;5066989;28;20650;-71
2023/10/07 07:13:27;;;;;;;5.40;3.03;;;11.00;99.90;;;;;;5065951;28;20622;-72
2023/10/07 07:15:57;;;;;;;4.97;3.90;;;11.30;99.00;;;;;;5066555;28;20878;-72
2023/10/07 07:18:26;;;;;;;4.23;2.90;;;11.40;99.10;;;;;;5068054;28;20631;-72
2023/10/07 07:21:00;;;;;;;2.90;2.30;;;11.60;97.80;;;;;;5066856;28;20659;-72
2023/10/07 07:23:35;;;;;;;6.50;2.93;;;11.70;97.60;;;;;;5066628;28;20645;-72
2023/10/07 07:26:09;;;;;;;4.80;2.50;;;11.70;98.00;;;;;;5067214;28;20625;-72
2023/10/07 07:28:42;;;;;;;3.13;2.83;;;11.80;97.00;;;;;;5068349;28;20856;-72
2023/10/07 07:31:11;;;;;;;5.30;2.50;;;11.80;96.60;;;;;;5067966;28;20637;-71
2023/10/07 07:33:39;;;;;;;5.57;3.80;;;11.80;97.20;;;;;;5068218;28;20657;-71
2023/10/07 07:36:18;;;;;;;4.27;2.57;;;11.70;98.50;;;;;;5067286;28;20650;-72
2023/10/07 07:38:46;;;;;;;4.33;2.27;;;11.80;98.60;;;;;;5065790;28;20664;-72
2023/10/07 07:41:29;;;;;;;5.30;2.97;;;12.00;98.80;;;;;;5067694;28;20782;-71
2023/10/07 07:43:59;;;;;;;6.23;3.30;;;12.20;97.30;;;;;;5066900;28;20774;-71
2023/10/07 07:46:28;;;;;;;4.83;2.67;;;12.60;96.30;;;;;;5066891;28;20664;-71
2023/10/07 07:49:05;;;;;;;4.83;3.57;;;12.80;97.20;;;;;;5066102;28;20626;-72
2023/10/07 07:51:37;;;;;;;3.60;2.30;;;13.00;95.70;;;;;;5067154;28;20630;-71
2023/10/07 07:54:06;;;;;;;5.03;2.70;;;13.20;95.00;;;;;;5067893;28;20633;-71
2023/10/07 07:56:34;;;;;;;4.93;2.23;;;13.40;94.50;;;;;;5067155;28;20662;-72
2023/10/07 07:59:06;;;;;;;3.37;2.40;;;13.60;93.90;;;;;;5067274;28;21314;-72
2023/10/07 08:01:33;;;;;;;3.00;2.10;;;13.70;93.80;;;;;;5059280;28;20675;-69
2023/10/07 08:04:09;;;;;;;5.27;2.90;;;13.90;93.70;;;;;;5062558;28;20635;-70
2023/10/07 08:06:35;;;;;;;3.60;2.43;;;13.90;93.30;;;;;;5059771;28;20652;-69
2023/10/07 08:09:03;;;;;;;2.43;2.23;;;14.00;94.20;;;;;;5064986;28;21214;-68
2023/10/07 08:11:35;;;;;;;2.30;2.10;;;14.10;95.00;;;;;;5065235;28;20633;-68
2023/10/07 08:14:09;;;;;;;3.27;2.27;;;14.30;94.90;;;;;;5063924;28;20636;-69
2023/10/07 08:16:46;;;;;;;6.00;3.50;;;14.70;93.40;;;;;;5064177;28;20674;-69
2023/10/07 08:19:13;;;;;;;3.97;2.43;;;15.00;92.10;;;;;;5066916;28;20637;-68
2023/10/07 08:21:40;;;;;;;2.53;2.10;;;15.10;91.90;;;;;;5064011;28;21522;-70
2023/10/07 08:24:07;;;;;;;2.40;2.17;;;15.20;91.20;;;;;;5066151;28;20621;-71
2023/10/07 08:26:34;;;;;;;4.50;2.50;;;15.20;91.10;;;;;;5063973;28;20633;-71
2023/10/07 08:29:03;;;;;;;2.93;2.50;;;15.20;91.10;;;;;;5066313;28;20633;-71
2023/10/07 08:31:39;;;;;;;12.37;2.77;;;15.10;92.10;;;;;;5064955;28;20713;-71
2023/10/07 08:34:10;;;;;;;4.27;2.27;;;15.10;91.50;;;;;;5067055;28;20634;-71
2023/10/07 08:36:43;;;;;;;4.20;3.00;;;15.40;90.90;;;;;;5065712;28;20913;-71
2023/10/07 08:39:11;;;;;;;2.27;2.00;;;15.70;90.60;;;;;;5065281;28;20629;-71
2023/10/07 08:41:40;;;;;;;3.23;2.27;;;16.10;88.90;;;;;;5067225;28;21270;-71
2023/10/07 08:44:13;;;;;;;3.20;2.50;;;16.40;88.40;;;;;;5066781;28;20737;-71
2023/10/07 08:46:40;;;;;;;1.77;1.60;;;16.50;86.10;;;;;;5065901;28;20969;-71
2023/10/07 08:49:13;;;;;;;2.87;2.10;;;16.70;82.80;;;;;;5067126;28;21584;-71
2023/10/07 08:51:41;;;;;;;3.80;1.73;;;16.70;82.70;;;;;;5066401;28;20628;-71
2023/10/07 08:54:17;;;;;;;2.13;1.93;;;16.80;80.70;;;;;;5067633;28;20621;-71
2023/10/07 08:56:50;;;;;;;3.07;2.10;;;16.70;82.70;;;;;;5065335;28;20695;-71
2023/10/07 08:59:22;;;;;;;3.80;2.70;;;16.70;82.00;;;;;;5066224;28;21212;-71
2023/10/07 09:01:57;;;;;;;4.00;2.20;;;16.70;79.00;;;;;;5065397;28;20628;-71
2023/10/07 09:04:24;;;;;;;3.10;2.00;;;16.70;81.30;;;;;;5066853;28;20660;-71
2023/10/07 09:06:52;;;;;;;1.73;1.60;;;16.80;80.70;;;;;;5066260;28;20632;-71
2023/10/07 09:09:33;;;;;;;3.03;2.47;;;16.80;80.20;;;;;;5066911;28;21301;-71
2023/10/07 09:12:08;;;;;;;2.10;1.43;;;16.80;75.30;;;;;;5066283;28;20639;-71
2023/10/07 09:14:36;;;;;;;2.53;1.80;;;16.90;76.90;;;;;;5066212;28;20629;-71
2023/10/07 09:17:04;;;;;;;6.03;2.23;;;17.00;76.40;;;;;;5069402;28;20702;-71
2023/10/07 09:19:31;;;;;;;2.90;1.43;;;17.10;76.00;;;;;;5070019;28;20731;-71
2023/10/07 09:21:59;;;;;;;6.07;1.73;;;17.20;74.70;;;;;;5069451;28;20639;-71
2023/10/07 09:24:26;;;;;;;2.77;1.80;;;17.40;74.00;;;;;;5069112;28;21211;-71
2023/10/07 09:26:57;;;;;;;5.43;2.03;;;17.30;75.70;;;;;;5068540;28;20787;-71
2023/10/07 09:29:25;;;;;;;2.80;2.03;;;17.40;74.50;;;;;;5070411;28;20664;-71
2023/10/07 09:31:59;;;;;;;2.33;1.57;;;17.40;75.70;;;;;;5069441;28;21461;-71
2023/10/07 09:34:41;;;;;;;5.53;2.40;;;17.50;75.30;;;;;;5070194;28;20622;-71
2023/10/07 09:37:12;;;;;;;3.70;1.90;;;17.60;75.00;;;;;;5068541;28;21104;-71
2023/10/07 09:39:45;;;;;;;2.00;1.70;;;17.60;75.40;;;;;;5069618;28;20633;-71
2023/10/07 09:42:36;;;;;;;8.80;2.37;;;17.40;73.60;;;;;;5069934;28;20711;-71
2023/10/07 09:45:15;;;;;;;3.53;2.33;;;17.50;74.30;;;;;;5070204;28;21825;-71
2023/10/07 09:47:44;;;;;;;3.30;2.30;;;17.50;75.70;;;;;;5068777;28;20651;-71
2023/10/07 09:50:19;;;;;;;3.40;2.33;;;17.60;75.50;;;;;;5068518;28;20624;-71
2023/10/07 09:52:51;;;;;;;2.80;2.40;;;17.50;75.30;;;;;;5069327;28;20732;-71
2023/10/07 09:55:43;;;;;;;2.93;1.67;;;17.50;78.90;;;;;;5069421;28;20617;-71
2023/10/07 09:58:36;;;;;;;3.60;2.13;;;17.60;77.20;;;;;;5069318;28;20642;-70
2023/10/07 10:01:28;;;;;;;2.30;1.77;;;17.60;77.90;;;;;;5069844;28;20626;-69
2023/10/07 10:04:11;;;;;;;7.00;2.47;;;17.60;76.90;;;;;;5069435;28;21173;-69
2023/10/07 10:06:55;;;;;;;3.63;2.00;;;17.60;78.20;;;;;;5068461;28;20720;-70
2023/10/07 10:09:27;;;;;;;4.40;2.87;;;17.60;78.50;;;;;;5069224;28;20644;-69
2023/10/07 10:12:18;;;;;;;2.53;2.33;;;17.70;79.00;;;;;;5069681;28;20624;-69
2023/10/07 10:14:56;;;;;;;3.40;2.77;;;17.70;79.40;;;;;;5068242;28;20679;-70
2023/10/07 10:17:32;;;;;;;3.53;2.53;;;17.80;76.80;;;;;;5068301;28;21488;-69
2023/10/07 10:20:11;;;;;;;7.00;4.73;;;17.80;79.30;;;;;;5069515;28;20657;-70
2023/10/07 10:22:39;;;;;;;3.50;2.30;;;17.90;81.40;;;;;;5069108;28;20662;-70
2023/10/07 10:25:22;;;;;;;3.50;2.03;;;17.90;77.10;;;;;;5068015;28;20683;-70
2023/10/07 10:27:51;;;;;;;3.60;2.00;;;18.00;76.90;;;;;;5068696;28;20620;-70
2023/10/07 10:30:22;;;;;;;2.50;1.87;;;18.00;76.20;;;;;;5069280;28;20625;-70
2023/10/07 10:32:54;;;;;;;2.30;1.67;;;18.10;74.20;;;;;;5068942;28;20706;-70
2023/10/07 10:35:25;;;;;;;3.63;2.67;;;18.00;72.90;;;;;;5068985;28;20625;-69
2023/10/07 10:37:55;;;;;;;2.27;2.07;;;18.00;71.90;;;;;;5067504;28;21799;-72
2023/10/07 10:40:23;;;;;;;4.20;2.40;;;18.10;73.70;;;;;;5068750;28;20627;-70
2023/10/07 10:42:51;;;;;;;3.10;2.30;;;18.20;73.10;;;;;;5069098;28;21256;-71
2023/10/07 10:45:21;;;;;;;2.10;1.90;;;18.20;73.60;;;;;;5068726;28;20625;-71
2023/10/07 10:47:50;;;;;;;2.43;2.10;;;18.20;72.40;;;;;;5066770;28;20624;-72
2023/10/07 10:50:19;;;;;;;3.67;2.40;;;18.50;67.80;;;;;;5065556;28;20845;-70
2023/10/07 10:52:48;;;;;;;3.13;2.37;;;18.50;72.90;;;;;;5069271;28;21435;-70
2023/10/07 10:55:15;;;;;;;4.67;2.03;;;18.60;72.20;;;;;;5068744;28;21038;-70
2023/10/07 10:57:42;;;;;;;4.23;1.70;;;18.80;71.10;;;;;;5067290;28;20810;-70
2023/10/07 11:00:19;;;;;;;3.17;1.97;;;18.80;70.20;;;;;;5068021;28;21013;-70
2023/10/07 11:02:47;;;;;;;4.60;2.33;;;18.90;74.40;;;;;;5067031;28;20651;-70
2023/10/07 11:05:14;;;;;;;2.70;2.40;;;18.80;70.80;;;;;;5068252;28;20624;-71
2023/10/07 11:07:41;;;;;;;2.90;2.05;;;18.90;70.70;;;;;;5066445;28;20750;-71
2023/10/07 11:10:11;;;;;;;3.20;2.57;;;19.10;69.50;;;;;;5068711;28;20330;-71
2023/10/07 11:12:40;;;;;;;3.47;1.93;;;19.10;69.80;;;;;;5066566;28;21158;-71
2023/10/07 11:15:13;;;;;;;2.40;1.67;;;19.00;71.50;;;;;;5066636;28;20656;-71
2023/10/07 11:17:41;;;;;;;3.13;2.27;;;19.00;72.20;;;;;;5067460;28;20653;-71
2023/10/07 11:20:11;;;;;;;6.23;2.67;;;19.00;70.00;;;;;;5068144;28;21285;-70
2023/10/07 11:22:38;;;;;;;1.60;1.50;;;19.10;69.80;;;;;;5068071;28;20731;-75
2023/10/07 11:25:12;;;;;;;3.70;2.10;;;19.20;69.50;;;;;;5067633;28;20278;-70
2023/10/07 11:27:43;;;;;;;3.07;2.17;;;19.10;69.70;;;;;;5066576;28;20726;-71
2023/10/07 11:30:12;;;;;;;2.00;1.70;;;19.10;72.70;;;;;;5067603;28;20637;-71
2023/10/07 11:32:39;;;;;;;2.53;1.90;;;19.20;71.30;;;;;;5067708;28;20644;-71
2023/10/07 11:35:16;;;;;;;2.70;2.50;;;19.20;69.90;;;;;;5066862;28;20613;-71
2023/10/07 11:37:49;;;;;;;1.80;1.70;;;19.20;73.20;;;;;;5065758;28;20652;-69
2023/10/07 11:40:16;;;;;;;2.80;1.67;;;19.20;72.20;;;;;;5066847;28;20732;-70
2023/10/07 11:42:44;;;;;;;4.60;2.17;;;19.10;72.70;;;;;;5066918;28;20621;-69
2023/10/07 11:45:12;;;;;;;2.10;1.90;;;19.00;73.00;;;;;;5067425;28;20628;-69
2023/10/07 11:47:41;;;;;;;6.47;2.40;;;19.10;68.40;;;;;;5067273;28;21248;-69
2023/10/07 11:50:09;;;;;;;3.77;2.10;;;19.10;68.90;;;;;;5067115;28;20970;-69
2023/10/07 11:52:37;;;;;;;4.50;2.60;;;19.00;69.80;;;;;;5067180;28;20629;-70
2023/10/07 11:55:07;;;;;;;4.00;2.10;;;18.90;68.10;;;;;;5067430;28;20617;-71
2023/10/07 11:57:34;;;;;;;4.30;2.30;;;18.80;67.40;;;;;;5066381;28;20822;-70
2023/10/07 12:00:09;;;;;;;3.97;2.40;;;18.80;69.50;;;;;;5067416;28;20210;-70
2023/10/07 12:02:35;;;;;;;3.30;2.30;;;18.90;69.60;;;;;;5066612;28;20683;-70
2023/10/07 12:05:05;;;;;;;5.13;2.37;;;19.00;71.20;;;;;;5066675;28;20628;-70
2023/10/07 12:07:32;;;;;;;2.80;2.10;;;19.10;70.10;;;;;;5066143;28;20704;-70
2023/10/07 12:09:58;;;;;;;3.63;2.37;;;19.10;72.20;;;;;;5067258;28;20623;-70
2023/10/07 12:12:27;;;;;;;3.00;2.63;;;19.10;70.80;;;;;;5066264;28;20642;-72
2023/10/07 12:14:56;;;;;;;2.30;2.10;;;19.30;70.90;;;;;;5067136;28;21248;-72
2023/10/07 12:17:25;;;;;;;4.70;2.50;;;19.20;68.90;;;;;;5066653;28;20688;-72
2023/10/07 12:19:51;;;;;;;4.53;2.27;;;19.30;69.20;;;;;;5065957;28;20979;-70
2023/10/07 12:22:18;;;;;;;4.03;1.97;;;19.20;71.80;;;;;;5065263;28;21193;-72
2023/10/07 12:24:46;;;;;;;2.83;1.50;;;19.00;70.70;;;;;;5065204;28;20629;-72
2023/10/07 12:27:15;;;;;;;2.80;1.80;;;19.00;71.60;;;;;;5065082;28;20629;-72
2023/10/07 12:29:43;;;;;;;6.33;2.93;;;19.00;72.30;;;;;;5066238;28;20621;-72
2023/10/07 12:32:10;;;;;;;5.07;2.53;;;19.10;72.40;;;;;;5066732;28;20636;-72
2023/10/07 12:34:40;;;;;;;3.03;1.90;;;19.10;71.20;;;;;;5066849;28;20776;-72
2023/10/07 12:37:07;;;;;;;3.93;2.50;;;19.10;73.40;;;;;;5066101;28;20671;-72
2023/10/07 12:39:39;;;;;;;4.17;2.57;;;19.00;72.30;;;;;;5067328;28;20628;-72
2023/10/07 12:42:07;;;;;;;2.97;1.93;;;19.00;72.60;;;;;;5066585;28;20621;-72
2023/10/07 12:44:34;;;;;;;2.80;2.30;;;19.00;73.40;;;;;;5065531;28;20621;-72
2023/10/07 12:47:01;;;;;;;3.40;1.87;;;19.00;71.30;;;;;;5066037;28;20643;-70
2023/10/07 12:49:28;;;;;;;2.73;2.13;;;19.00;70.80;;;;;;5066954;28;20625;-71
2023/10/07 12:51:57;;;;;;;4.73;2.03;;;19.20;71.20;;;;;;5069608;28;20967;-71
2023/10/07 12:54:34;;;;;;;2.33;1.60;;;19.20;72.30;;;;;;5070557;28;20991;-71
2023/10/07 12:57:03;;;;;;;6.57;2.67;;;19.30;75.30;;;;;;5070328;28;20668;-71
2023/10/07 12:59:35;;;;;;;2.00;1.80;;;19.50;74.50;;;;;;5069547;28;20635;-71
2023/10/07 13:02:03;;;;;;;3.37;2.10;;;19.70;71.40;;;;;;5070152;28;20727;-71
2023/10/07 13:04:34;;;;;;;3.77;2.17;;;19.70;73.50;;;;;;5070202;28;21258;-71
2023/10/07 13:07:09;;;;;;;3.90;2.20;;;19.70;72.50;;;;;;5070408;28;20649;-71
2023/10/07 13:09:40;;;;;;;12.03;2.70;;;19.70;72.40;;;;;;5070605;28;20933;-71
2023/10/07 13:12:15;;;;;;;9.10;4.63;;;19.70;73.40;;;;;;5069382;28;20609;-71
2023/10/07 13:14:42;;;;;;;44.03;25.13;;;19.70;72.60;;;;;;5070129;28;20624;-71
2023/10/07 13:17:13;;;;;;;10.53;7.07;;;19.50;73.80;;;;;;5070085;28;20691;-71